createdAt,value
2023-01-03T00:01:40.410Z,74.71
2023-01-03T00:04:09.261Z,74.70
2023-01-03T00:06:40.424Z,74.77
2023-01-03T00:09:10.974Z,74.77
2023-01-03T00:11:59.103Z,74.77
2023-01-03T00:14:30.990Z,74.77
2023-01-03T00:17:01.229Z,74.74
2023-01-03T00:19:33.487Z,74.74
2023-01-03T00:22:02.033Z,74.70
2023-01-03T00:24:30.064Z,74.63
2023-01-03T00:26:58.281Z,74.58
2023-01-03T00:29:26.287Z,74.50
2023-01-03T00:31:54.291Z,74.48
2023-01-03T00:34:22.772Z,74.42
2023-01-03T00:36:50.709Z,74.40
2023-01-03T00:39:19.067Z,74.33
2023-01-03T00:41:47.548Z,74.28
2023-01-03T00:44:16.139Z,74.27
2023-01-03T00:46:44.625Z,74.25
2023-01-03T00:49:13.042Z,74.21
2023-01-03T00:51:42.170Z,74.16
2023-01-03T00:54:11.809Z,74.16
2023-01-03T00:56:43.063Z,74.18
2023-01-03T00:59:12.697Z,74.20
2023-01-03T01:01:47.190Z,74.21
2023-01-03T01:04:19.519Z,74.21
2023-01-03T01:06:50.555Z,74.19
2023-01-03T01:09:30.119Z,74.18
2023-01-03T01:11:58.220Z,74.16
2023-01-03T01:14:28.302Z,74.15
2023-01-03T01:16:57.702Z,74.16
2023-01-03T01:19:34.887Z,74.17
2023-01-03T01:22:03.722Z,74.12
2023-01-03T01:24:32.276Z,74.10
2023-01-03T01:27:00.934Z,74.07
2023-01-03T01:29:28.928Z,74.10
2023-01-03T01:31:57.140Z,74.06
2023-01-03T01:34:25.178Z,74.01
2023-01-03T01:36:53.086Z,73.98
2023-01-03T01:39:24.810Z,73.96
2023-01-03T01:42:22.299Z,73.88
2023-01-03T01:45:02.257Z,73.79
2023-01-03T01:47:40.158Z,73.79
2023-01-03T01:50:17.079Z,73.75
2023-01-03T01:52:57.449Z,73.65
2023-01-03T01:55:30.986Z,73.70
2023-01-03T01:58:01.991Z,73.68
2023-01-03T02:00:30.487Z,73.74
2023-01-03T02:02:59.124Z,73.74
2023-01-03T02:05:28.937Z,73.73
2023-01-03T02:07:58.311Z,73.77
2023-01-03T02:10:54.376Z,73.85
2023-01-03T02:13:28.071Z,73.87
2023-01-03T02:16:28.513Z,73.88
2023-01-03T02:19:23.753Z,73.92
2023-01-03T02:21:54.674Z,74.01
2023-01-03T02:24:32.132Z,74.08
2023-01-03T02:27:32.627Z,74.05
2023-01-03T02:30:22.459Z,74.18
2023-01-03T02:32:58.320Z,74.19
2023-01-03T02:35:47.468Z,74.22
2023-01-03T02:38:29.003Z,74.42
2023-01-03T02:41:14.343Z,74.54
2023-01-03T02:44:01.409Z,74.53
2023-01-03T02:46:40.611Z,74.71
2023-01-03T02:49:11.739Z,74.75
2023-01-03T02:52:05.639Z,74.79
2023-01-03T02:54:47.205Z,74.84
2023-01-03T02:57:20.094Z,75.46
2023-01-03T02:59:52.033Z,75.70
2023-01-03T03:02:23.613Z,75.69
2023-01-03T03:04:56.499Z,76.03
2023-01-03T03:07:32.025Z,76.03
2023-01-03T03:10:19.320Z,76.19
2023-01-03T03:13:09.941Z,76.43
2023-01-03T03:15:56.190Z,76.49
2023-01-03T03:18:56.376Z,76.68
2023-01-03T03:21:49.976Z,76.63
2023-01-03T03:24:43.643Z,77.13
2023-01-03T03:27:35.912Z,77.08
2023-01-03T03:30:08.902Z,77.69
2023-01-03T03:32:39.971Z,77.82
2023-01-03T03:35:12.079Z,77.91
2023-01-03T03:37:43.584Z,77.68
2023-01-03T03:40:30.702Z,78.07
2023-01-03T03:43:42.830Z,78.25
2023-01-03T03:46:17.224Z,78.24
2023-01-03T03:49:26.996Z,78.34
2023-01-03T03:51:59.304Z,78.93
2023-01-03T03:54:30.330Z,79.29
2023-01-03T03:57:10.826Z,79.16
2023-01-03T03:59:41.694Z,79.41
2023-01-03T04:02:13.739Z,79.64
2023-01-03T04:04:47.507Z,79.93
2023-01-03T04:07:15.512Z,79.83
2023-01-03T04:09:43.372Z,79.99
2023-01-03T04:12:11.582Z,79.82
2023-01-03T04:14:39.651Z,79.80
2023-01-03T04:17:07.642Z,79.89
2023-01-03T04:19:35.961Z,79.83
2023-01-03T04:22:03.912Z,80.05
2023-01-03T04:24:31.800Z,80.23
2023-01-03T04:27:00.129Z,80.25
2023-01-03T04:29:28.186Z,80.12
2023-01-03T04:31:56.149Z,80.05
2023-01-03T04:34:24.353Z,80.11
2023-01-03T04:36:52.387Z,80.02
2023-01-03T04:39:20.298Z,80.07
2023-01-03T04:41:48.434Z,79.90
2023-01-03T04:44:16.533Z,79.70
2023-01-03T04:46:50.654Z,80.05
2023-01-03T04:49:20.764Z,79.94
2023-01-03T04:51:48.638Z,79.92
2023-01-03T04:54:16.546Z,79.96
2023-01-03T04:56:44.662Z,79.67
2023-01-03T04:59:12.523Z,79.77
2023-01-03T05:01:52.331Z,79.62
2023-01-03T05:04:20.887Z,79.49
2023-01-03T05:06:48.915Z,79.29
2023-01-03T05:09:17.025Z,79.01
2023-01-03T05:11:45.174Z,78.92
2023-01-03T05:14:14.641Z,78.87
2023-01-03T05:16:43.060Z,78.82
2023-01-03T05:19:11.018Z,78.86
2023-01-03T05:21:58.445Z,78.93
2023-01-03T05:24:45.445Z,78.94
2023-01-03T05:27:13.593Z,78.85
2023-01-03T05:29:41.763Z,78.71
2023-01-03T05:32:09.928Z,78.59
2023-01-03T05:34:38.103Z,78.52
2023-01-03T05:37:06.079Z,78.35
2023-01-03T05:39:33.979Z,78.36
2023-01-03T05:42:02.300Z,78.40
2023-01-03T05:44:33.209Z,78.39
2023-01-03T05:47:03.257Z,78.35
2023-01-03T05:49:31.217Z,78.33
2023-01-03T05:51:59.203Z,78.32
2023-01-03T05:54:27.390Z,78.33
2023-01-03T05:56:55.364Z,78.33
2023-01-03T05:59:23.349Z,78.50
2023-01-03T06:01:51.748Z,78.61
2023-01-03T06:04:20.139Z,78.74
2023-01-03T06:06:48.734Z,78.94
2023-01-03T06:09:16.990Z,79.20
2023-01-03T06:11:44.894Z,79.70
2023-01-03T06:14:12.995Z,80.20
2023-01-03T06:17:19.428Z,80.26
2023-01-03T06:19:47.469Z,80.11
2023-01-03T06:22:15.403Z,80.11
2023-01-03T06:24:43.364Z,80.42
2023-01-03T06:27:11.383Z,80.26
2023-01-03T06:29:39.640Z,80.25
2023-01-03T06:32:09.799Z,80.37
2023-01-03T06:34:38.695Z,80.50
2023-01-03T06:37:07.272Z,80.20
2023-01-03T06:39:35.490Z,80.50
2023-01-03T06:42:23.769Z,80.78
2023-01-03T06:45:10.436Z,80.27
2023-01-03T06:47:57.592Z,80.49
2023-01-03T06:50:44.712Z,80.66
2023-01-03T06:53:16.182Z,80.68
2023-01-03T06:55:50.004Z,80.61
2023-01-03T06:58:22.730Z,80.88
2023-01-03T07:00:50.715Z,81.06
2023-01-03T07:03:18.623Z,81.33
2023-01-03T07:05:46.728Z,81.56
2023-01-03T07:08:14.616Z,81.69
2023-01-03T07:10:42.604Z,81.80
2023-01-03T07:13:29.692Z,81.71
2023-01-03T07:15:57.706Z,81.94
2023-01-03T07:18:26.531Z,81.92
2023-01-03T07:20:54.719Z,82.17
2023-01-03T07:23:22.823Z,82.25
2023-01-03T07:25:55.098Z,82.57
2023-01-03T07:28:23.300Z,82.75
2023-01-03T07:30:51.382Z,82.75
2023-01-03T07:33:19.559Z,82.90
2023-01-03T07:35:47.681Z,82.51
2023-01-03T07:38:15.619Z,82.73
2023-01-03T07:40:43.618Z,83.06
2023-01-03T07:43:30.882Z,82.96
2023-01-03T07:45:58.990Z,83.21
2023-01-03T07:48:26.952Z,83.33
2023-01-03T07:50:59.206Z,83.48
2023-01-03T07:53:27.977Z,83.61
2023-01-03T07:56:13.491Z,83.80
2023-01-03T07:58:43.296Z,83.75
2023-01-03T08:01:15.515Z,83.52
2023-01-03T08:03:44.612Z,83.60
2023-01-03T08:06:18.085Z,83.51
2023-01-03T08:09:06.637Z,83.45
2023-01-03T08:11:53.494Z,83.35
2023-01-03T08:14:25.642Z,83.24
2023-01-03T08:16:56.022Z,82.90
2023-01-03T08:19:24.894Z,83.02
2023-01-03T08:21:53.045Z,82.83
2023-01-03T08:24:21.151Z,82.50
2023-01-03T08:26:49.123Z,81.91
2023-01-03T08:29:17.293Z,81.73
2023-01-03T08:31:55.032Z,81.38
2023-01-03T08:34:29.881Z,81.23
2023-01-03T08:37:03.261Z,80.95
2023-01-03T08:39:41.143Z,80.61
2023-01-03T08:42:12.736Z,80.39
2023-01-03T08:44:41.691Z,80.21
2023-01-03T08:47:09.984Z,79.87
2023-01-03T08:49:39.507Z,79.52
2023-01-03T08:52:07.822Z,79.22
2023-01-03T08:54:35.850Z,79.10
2023-01-03T08:57:04.091Z,78.95
2023-01-03T08:59:32.109Z,78.76
2023-01-03T09:02:00.782Z,78.60
2023-01-03T09:04:29.100Z,78.50
2023-01-03T09:06:57.496Z,78.05
2023-01-03T09:09:25.612Z,77.45
2023-01-03T09:11:53.694Z,77.72
2023-01-03T09:14:23.874Z,77.05
2023-01-03T09:16:51.853Z,75.87
2023-01-03T09:19:20.158Z,76.52
2023-01-03T09:21:48.035Z,75.11
2023-01-03T09:24:16.027Z,74.98
2023-01-03T09:26:45.980Z,74.79
2023-01-03T09:29:17.292Z,74.08
2023-01-03T09:31:46.011Z,74.09
2023-01-03T09:34:14.125Z,74.31
2023-01-03T09:36:42.250Z,73.99
2023-01-03T09:39:10.813Z,73.82
2023-01-03T09:41:40.071Z,72.58
2023-01-03T09:44:09.325Z,72.24
2023-01-03T09:46:38.275Z,72.29
2023-01-03T09:49:07.486Z,73.12
2023-01-03T09:51:58.151Z,72.91
2023-01-03T09:54:52.507Z,73.13
2023-01-03T09:57:54.652Z,72.40
2023-01-03T10:00:45.723Z,70.96
2023-01-03T10:04:01.935Z,71.87
2023-01-03T10:06:39.023Z,70.09
2023-01-03T10:09:25.758Z,71.11
2023-01-03T10:12:11.788Z,71.47
2023-01-03T10:15:17.093Z,71.58
2023-01-03T10:18:03.167Z,70.45
2023-01-03T10:20:42.528Z,70.28
2023-01-03T10:23:11.606Z,69.93
2023-01-03T10:25:43.382Z,70.38
2023-01-03T10:28:27.316Z,69.58
2023-01-03T10:31:22.796Z,69.12
2023-01-03T10:33:50.806Z,68.52
2023-01-03T10:36:21.271Z,68.19
2023-01-03T10:39:03.515Z,68.80
2023-01-03T10:41:49.063Z,69.43
2023-01-03T10:44:32.586Z,69.92
2023-01-03T10:47:10.632Z,69.29
2023-01-03T10:49:45.416Z,69.72
2023-01-03T10:52:18.726Z,68.95
2023-01-03T10:54:51.758Z,69.39
2023-01-03T10:57:39.334Z,69.12
2023-01-03T11:00:36.036Z,69.74
2023-01-03T11:03:18.509Z,68.20
2023-01-03T11:05:50.493Z,68.39
2023-01-03T11:08:21.770Z,69.06
2023-01-03T11:10:58.436Z,69.09
2023-01-03T11:13:40.180Z,68.79
2023-01-03T11:16:17.041Z,68.86
2023-01-03T11:19:00.524Z,69.11
2023-01-03T11:21:56.564Z,69.05
2023-01-03T11:24:49.544Z,69.26
2023-01-03T11:28:02.659Z,69.03
2023-01-03T11:31:00.416Z,69.18
2023-01-03T11:33:54.032Z,69.62
2023-01-03T11:36:44.953Z,69.87
2023-01-03T11:39:26.621Z,69.20
2023-01-03T11:41:55.106Z,68.39
2023-01-03T11:44:41.648Z,68.53
2023-01-03T11:47:29.418Z,68.35
2023-01-03T11:50:25.103Z,68.07
2023-01-03T11:53:03.763Z,68.79
2023-01-03T11:55:42.171Z,68.40
2023-01-03T11:58:36.528Z,68.14
2023-01-03T12:01:39.471Z,68.42
2023-01-03T12:04:27.043Z,68.51
2023-01-03T12:10:06.638Z,68.37
2023-01-03T12:12:54.680Z,67.97
2023-01-03T12:15:32.431Z,67.97
2023-01-03T12:18:39.726Z,68.12
2023-01-03T12:21:26.282Z,68.00
2023-01-03T12:24:14.518Z,67.81
2023-01-03T12:26:45.293Z,67.65
2023-01-03T12:29:18.434Z,66.88
2023-01-03T12:32:31.546Z,66.79
2023-01-03T12:35:42.943Z,66.78
2023-01-03T12:38:12.441Z,67.29
2023-01-03T12:40:54.644Z,67.54
2023-01-03T12:43:42.978Z,66.63
2023-01-03T12:46:37.485Z,67.11
2023-01-03T12:49:31.610Z,67.08
2023-01-03T12:51:59.701Z,67.04
2023-01-03T12:54:30.711Z,66.99
2023-01-03T12:57:21.287Z,67.01
2023-01-03T12:59:59.978Z,67.12
2023-01-03T13:02:53.637Z,67.10
2023-01-03T13:05:51.823Z,67.20
2023-01-03T13:08:41.723Z,67.51
2023-01-03T13:11:49.147Z,67.38
2023-01-03T13:14:30.005Z,67.74
2023-01-03T13:17:18.054Z,67.82
2023-01-03T13:20:18.126Z,68.12
2023-01-03T13:22:56.272Z,68.11
2023-01-03T13:25:29.707Z,68.33
2023-01-03T13:28:07.771Z,68.23
2023-01-03T13:30:40.853Z,68.65
2023-01-03T13:33:17.808Z,68.64
2023-01-03T13:35:50.398Z,68.74
2023-01-03T13:38:27.610Z,68.74
2023-01-03T13:41:18.093Z,69.00
2023-01-03T13:43:55.811Z,69.03
2023-01-03T13:46:29.468Z,69.19
2023-01-03T13:49:04.483Z,69.31
2023-01-03T13:51:41.777Z,69.37
2023-01-03T13:54:13.046Z,69.54
2023-01-03T13:56:44.438Z,69.69
2023-01-03T13:59:15.660Z,69.85
2023-01-03T14:02:06.185Z,70.02
2023-01-03T14:04:53.689Z,70.07
2023-01-03T14:07:40.147Z,70.20
2023-01-03T14:10:31.323Z,70.25
2023-01-03T14:13:33.713Z,70.26
2023-01-03T14:16:26.227Z,70.49
2023-01-03T14:19:02.668Z,70.55
2023-01-03T14:21:57.834Z,70.78
2023-01-03T14:24:32.057Z,70.75
2023-01-03T14:27:17.821Z,70.89
2023-01-03T14:29:54.546Z,71.02
2023-01-03T14:32:32.078Z,71.25
2023-01-03T14:35:04.284Z,71.48
2023-01-03T14:37:35.047Z,71.63
2023-01-03T14:40:06.219Z,71.85
2023-01-03T14:42:34.375Z,71.95
2023-01-03T14:45:07.540Z,72.23
2023-01-03T14:47:41.728Z,72.64
2023-01-03T14:50:24.599Z,72.79
2023-01-03T14:52:56.659Z,73.07
2023-01-03T14:55:30.855Z,73.32
2023-01-03T14:58:02.054Z,73.44
2023-01-03T15:00:33.683Z,73.51
2023-01-03T15:03:04.139Z,73.88
2023-01-03T15:05:39.664Z,74.17
2023-01-03T15:08:22.271Z,74.30
2023-01-03T15:10:56.286Z,74.23
2023-01-03T15:13:36.706Z,74.61
2023-01-03T15:16:08.385Z,74.76
2023-01-03T15:18:39.964Z,74.39
2023-01-03T15:21:07.900Z,74.83
2023-01-03T15:23:38.553Z,74.75
2023-01-03T15:26:26.440Z,74.48
2023-01-03T15:29:23.974Z,74.69
2023-01-03T15:31:55.118Z,74.84
2023-01-03T15:34:29.321Z,74.95
2023-01-03T15:37:03.388Z,74.96
2023-01-03T15:39:43.126Z,74.81
2023-01-03T15:42:50.348Z,74.89
2023-01-03T15:45:26.700Z,74.61
2023-01-03T15:47:57.971Z,74.52
2023-01-03T15:50:38.030Z,74.52
2023-01-03T15:53:06.409Z,74.42
2023-01-03T15:55:34.278Z,74.43
2023-01-03T15:58:02.333Z,74.42
2023-01-03T16:00:35.680Z,74.35
2023-01-03T16:03:04.056Z,74.35
2023-01-03T16:05:32.300Z,74.37
2023-01-03T16:08:00.264Z,74.36
2023-01-03T16:10:28.461Z,74.42
2023-01-03T16:12:56.852Z,74.55
2023-01-03T16:15:24.813Z,74.78
2023-01-03T16:17:52.884Z,75.03
2023-01-03T16:20:21.040Z,75.10
2023-01-03T16:23:00.629Z,75.41
2023-01-03T16:25:29.906Z,75.39
2023-01-03T16:27:58.016Z,75.65
2023-01-03T16:30:26.015Z,75.77
2023-01-03T16:32:54.189Z,75.85
2023-01-03T16:35:22.127Z,76.00
2023-01-03T16:37:50.488Z,76.06
2023-01-03T16:40:20.686Z,76.11
2023-01-03T16:42:48.835Z,76.30
2023-01-03T16:45:17.644Z,76.48
2023-01-03T16:47:46.156Z,76.75
2023-01-03T16:50:18.741Z,76.95
2023-01-03T16:52:52.669Z,76.80
2023-01-03T16:55:28.187Z,76.92
2023-01-03T16:57:57.319Z,76.98
2023-01-03T17:00:28.272Z,77.02
2023-01-03T17:03:00.328Z,77.14
2023-01-03T17:05:37.419Z,77.31
2023-01-03T17:08:16.345Z,77.20
2023-01-03T17:10:47.000Z,77.28
2023-01-03T17:13:27.424Z,77.18
2023-01-03T17:15:56.435Z,77.24
2023-01-03T17:18:28.038Z,77.26
2023-01-03T17:21:01.605Z,77.30
2023-01-03T17:23:32.496Z,77.47
2023-01-03T17:26:00.526Z,77.78
2023-01-03T17:28:29.693Z,77.83
2023-01-03T17:30:57.768Z,77.58
2023-01-03T17:33:31.904Z,77.51
2023-01-03T17:36:00.118Z,77.69
2023-01-03T17:38:29.799Z,77.68
2023-01-03T17:40:57.954Z,77.78
2023-01-03T17:43:26.214Z,77.73
2023-01-03T17:46:22.679Z,77.67
2023-01-03T17:49:10.380Z,77.59
2023-01-03T17:51:38.901Z,77.60
2023-01-03T17:54:06.908Z,77.67
2023-01-03T17:56:35.049Z,77.56
2023-01-03T17:59:04.952Z,77.46
2023-01-03T18:01:34.235Z,77.36
2023-01-03T18:04:02.496Z,77.30
2023-01-03T18:06:30.609Z,77.41
2023-01-03T18:09:15.359Z,77.35
2023-01-03T18:11:46.225Z,77.27
2023-01-03T18:14:15.696Z,77.36
2023-01-03T18:16:46.577Z,77.42
2023-01-03T18:19:18.095Z,77.35
2023-01-03T18:21:46.184Z,77.24
2023-01-03T18:24:24.101Z,77.19
2023-01-03T18:26:54.897Z,76.95
2023-01-03T18:29:22.782Z,76.88
2023-01-03T18:31:50.796Z,76.97
2023-01-03T18:34:18.840Z,76.89
2023-01-03T18:36:50.636Z,76.93
2023-01-03T18:39:30.073Z,76.79
2023-01-03T18:42:16.754Z,76.77
2023-01-03T18:44:44.930Z,76.74
2023-01-03T18:47:13.820Z,76.65
2023-01-03T18:49:41.984Z,76.50
2023-01-03T18:52:25.639Z,76.52
2023-01-03T18:54:54.108Z,76.36
2023-01-03T18:57:23.296Z,76.36
2023-01-03T18:59:51.562Z,76.32
2023-01-03T19:02:21.751Z,76.32
2023-01-03T19:04:51.756Z,76.23
2023-01-03T19:07:28.990Z,76.11
2023-01-03T19:09:58.000Z,75.97
2023-01-03T19:12:26.081Z,75.89
2023-01-03T19:14:54.191Z,75.77
2023-01-03T19:17:22.752Z,75.74
2023-01-03T19:19:50.720Z,75.67
2023-01-03T19:22:27.087Z,75.67
2023-01-03T19:24:59.667Z,75.65
2023-01-03T19:27:40.382Z,75.58
2023-01-03T19:30:21.291Z,75.57
2023-01-03T19:32:53.663Z,75.56
2023-01-03T19:35:23.505Z,75.61
2023-01-03T19:37:54.055Z,75.51
2023-01-03T19:40:33.755Z,75.42
2023-01-03T19:43:02.523Z,75.41
2023-01-03T19:45:36.934Z,75.44
2023-01-03T19:48:16.249Z,75.35
2023-01-03T19:50:44.756Z,75.29
2023-01-03T19:53:13.016Z,75.29
2023-01-03T19:55:44.717Z,75.29
2023-01-03T19:58:21.702Z,75.30
2023-01-03T20:00:51.377Z,75.30
2023-01-03T20:03:33.841Z,75.24
2023-01-03T20:06:02.120Z,75.30
2023-01-03T20:08:30.062Z,75.32
2023-01-03T20:10:58.373Z,75.32
2023-01-03T20:13:27.627Z,75.32
2023-01-03T20:16:00.508Z,75.30
2023-01-03T20:18:36.882Z,75.28
2023-01-03T20:21:07.355Z,75.22
2023-01-03T20:23:40.643Z,75.18
2023-01-03T20:26:30.614Z,75.18
2023-01-03T20:29:00.118Z,75.28
2023-01-03T20:31:29.021Z,75.31
2023-01-03T20:33:57.114Z,75.34
2023-01-03T20:36:32.056Z,75.40
2023-01-03T20:39:00.106Z,75.44
2023-01-03T20:41:37.371Z,75.47
2023-01-03T20:44:09.308Z,75.55
2023-01-03T20:46:39.371Z,75.49
2023-01-03T20:49:19.332Z,75.44
2023-01-03T20:51:48.060Z,75.52
2023-01-03T20:54:16.126Z,75.56
2023-01-03T20:56:45.186Z,75.68
2023-01-03T20:59:18.973Z,75.63
2023-01-03T21:01:50.071Z,75.71
2023-01-03T21:04:18.335Z,75.67
2023-01-03T21:06:48.070Z,75.58
2023-01-03T21:09:16.083Z,75.58
2023-01-03T21:11:44.036Z,75.57
2023-01-03T21:14:12.165Z,75.59
2023-01-03T21:16:46.727Z,75.53
2023-01-03T21:19:16.424Z,75.60
2023-01-03T21:21:46.718Z,75.74
2023-01-03T21:24:16.898Z,75.70
2023-01-03T21:26:45.029Z,75.72
2023-01-03T21:29:13.147Z,75.85
2023-01-03T21:31:42.830Z,75.88
2023-01-03T21:34:18.799Z,75.82
2023-01-03T21:36:47.456Z,75.79
2023-01-03T21:39:15.866Z,75.82
2023-01-03T21:42:02.863Z,75.76
2023-01-03T21:44:30.800Z,75.77
2023-01-03T21:46:58.828Z,75.77
2023-01-03T21:49:26.801Z,75.80
2023-01-03T21:51:54.654Z,75.84
2023-01-03T21:54:22.813Z,75.83
2023-01-03T21:56:50.842Z,75.89
2023-01-03T21:59:18.948Z,75.85
2023-01-03T22:02:06.564Z,75.91
2023-01-03T22:04:34.754Z,75.96
2023-01-03T22:07:03.033Z,75.98
2023-01-03T22:09:50.994Z,76.09
2023-01-03T22:12:19.907Z,76.14
2023-01-03T22:14:48.052Z,76.08
2023-01-03T22:17:16.465Z,76.15
2023-01-03T22:19:44.625Z,76.11
2023-01-03T22:22:12.643Z,76.15
2023-01-03T22:24:40.768Z,76.16
2023-01-03T22:27:08.827Z,76.17
2023-01-03T22:29:36.804Z,76.18
2023-01-03T22:32:05.135Z,76.11
2023-01-03T22:34:33.051Z,76.16
2023-01-03T22:37:00.972Z,76.14
2023-01-03T22:39:29.104Z,76.01
2023-01-03T22:41:57.173Z,76.06
2023-01-03T22:44:25.251Z,76.03
2023-01-03T22:46:53.354Z,76.00
2023-01-03T22:49:21.256Z,75.90
2023-01-03T22:51:49.155Z,75.81
2023-01-03T22:54:17.166Z,75.79
2023-01-03T22:56:45.389Z,75.81
2023-01-03T22:59:13.301Z,75.81
2023-01-03T23:01:41.440Z,75.79
2023-01-03T23:04:09.468Z,76.02
2023-01-03T23:06:37.623Z,76.00
2023-01-03T23:09:05.991Z,76.31
2023-01-03T23:11:52.634Z,75.66
2023-01-03T23:14:23.211Z,75.41
2023-01-03T23:16:52.615Z,75.30
2023-01-03T23:19:22.611Z,75.42
2023-01-03T23:21:52.196Z,75.55
2023-01-03T23:24:23.305Z,75.73
2023-01-03T23:26:52.174Z,75.78
2023-01-03T23:29:21.458Z,75.99
2023-01-03T23:31:49.408Z,76.02
2023-01-03T23:34:17.391Z,76.16
2023-01-03T23:36:45.385Z,76.20
2023-01-03T23:39:15.966Z,76.34
2023-01-03T23:41:44.344Z,76.48
2023-01-03T23:44:12.840Z,76.58
2023-01-03T23:46:41.416Z,76.60
2023-01-03T23:49:12.062Z,76.60
2023-01-03T23:51:40.207Z,76.55
2023-01-03T23:54:08.049Z,76.53
2023-01-03T23:56:36.176Z,76.59
2023-01-03T23:59:04.695Z,76.57
